createdAt,value
2022-10-21T00:01:35.311Z,1.60
2022-10-21T00:04:03.465Z,1.60
2022-10-21T00:06:32.691Z,1.40
2022-10-21T00:09:00.627Z,1.60
2022-10-21T00:11:28.580Z,1.57
2022-10-21T00:13:56.474Z,1.93
2022-10-21T00:16:24.358Z,1.60
2022-10-21T00:18:52.256Z,1.80
2022-10-21T00:21:21.218Z,1.40
2022-10-21T00:23:50.869Z,1.60
2022-10-21T00:26:18.947Z,1.50
2022-10-21T00:28:46.853Z,1.60
2022-10-21T00:31:15.485Z,1.50
2022-10-21T00:33:43.593Z,1.50
2022-10-21T00:36:14.832Z,1.70
2022-10-21T00:38:43.147Z,1.40
2022-10-21T00:41:12.571Z,1.60
2022-10-21T00:44:00.917Z,1.50
2022-10-21T00:46:36.990Z,1.40
2022-10-21T00:49:07.551Z,1.53
2022-10-21T00:51:35.439Z,1.50
2022-10-21T00:54:03.324Z,1.60
2022-10-21T00:56:33.050Z,1.40
2022-10-21T00:59:01.614Z,1.60
2022-10-21T01:01:29.512Z,1.40
2022-10-21T01:03:57.421Z,1.50
2022-10-21T01:06:25.715Z,1.50
2022-10-21T01:08:54.539Z,1.50
2022-10-21T01:11:22.959Z,1.20
2022-10-21T01:13:59.722Z,1.40
2022-10-21T01:16:30.336Z,1.30
2022-10-21T01:19:00.376Z,1.33
2022-10-21T01:21:32.534Z,1.40
2022-10-21T01:24:24.524Z,1.40
2022-10-21T01:27:15.782Z,1.30
2022-10-21T01:30:14.213Z,1.20
2022-10-21T01:32:49.893Z,1.40
2022-10-21T01:35:20.998Z,1.30
2022-10-21T01:37:53.742Z,1.23
2022-10-21T01:40:22.748Z,1.30
2022-10-21T01:42:52.638Z,1.37
2022-10-21T01:45:22.836Z,1.20
2022-10-21T01:47:53.030Z,1.50
2022-10-21T01:50:22.029Z,1.37
2022-10-21T01:52:51.319Z,1.20
2022-10-21T01:55:21.311Z,1.30
2022-10-21T01:57:52.083Z,1.30
2022-10-21T02:00:20.146Z,1.20
2022-10-21T02:02:49.111Z,1.20
2022-10-21T02:05:19.830Z,1.30
2022-10-21T02:07:47.945Z,1.50
2022-10-21T02:10:15.939Z,1.50
2022-10-21T02:12:44.641Z,1.40
2022-10-21T02:15:14.354Z,1.50
2022-10-21T02:17:43.841Z,1.20
2022-10-21T02:20:11.726Z,1.20
2022-10-21T02:22:41.152Z,1.20
2022-10-21T02:25:10.462Z,1.30
2022-10-21T02:27:38.330Z,1.40
2022-10-21T02:30:07.320Z,1.10
2022-10-21T02:32:37.171Z,1.30
2022-10-21T02:35:16.211Z,1.40
2022-10-21T02:37:48.738Z,1.30
2022-10-21T02:40:18.640Z,1.80
2022-10-21T02:42:49.015Z,1.30
2022-10-21T02:45:17.434Z,1.33
2022-10-21T02:47:48.168Z,1.10
2022-10-21T02:50:16.039Z,1.20
2022-10-21T02:52:43.930Z,1.00
2022-10-21T02:55:13.163Z,1.30
2022-10-21T02:57:41.576Z,1.50
2022-10-21T03:00:10.699Z,1.40
2022-10-21T03:02:38.575Z,1.33
2022-10-21T03:05:07.204Z,1.20
2022-10-21T03:07:35.100Z,1.13
2022-10-21T03:10:03.031Z,1.50
2022-10-21T03:12:32.306Z,1.30
2022-10-21T03:15:00.219Z,1.20
2022-10-21T03:17:30.825Z,1.17
2022-10-21T03:19:58.786Z,1.30
2022-10-21T03:22:27.848Z,1.20
2022-10-21T03:24:55.709Z,1.10
2022-10-21T03:27:23.604Z,1.40
2022-10-21T03:29:52.885Z,1.20
2022-10-21T03:32:20.746Z,1.30
2022-10-21T03:34:48.598Z,1.10
2022-10-21T03:37:16.463Z,1.10
2022-10-21T03:39:44.470Z,1.10
2022-10-21T03:42:12.355Z,1.30
2022-10-21T03:44:40.839Z,1.30
2022-10-21T03:47:10.082Z,1.10
2022-10-21T03:49:37.945Z,1.03
2022-10-21T03:52:06.195Z,1.20
2022-10-21T03:54:34.273Z,1.00
2022-10-21T03:57:02.164Z,1.10
2022-10-21T03:59:30.183Z,1.10
2022-10-21T04:02:01.060Z,0.83
2022-10-21T04:04:30.339Z,1.20
2022-10-21T04:06:58.214Z,1.00
2022-10-21T04:09:26.248Z,0.97
2022-10-21T04:11:54.137Z,1.00
2022-10-21T04:14:22.007Z,1.20
2022-10-21T04:16:53.619Z,1.20
2022-10-21T04:19:31.419Z,1.20
2022-10-21T04:21:59.293Z,1.17
2022-10-21T04:24:27.163Z,1.10
2022-10-21T04:26:55.030Z,1.10
2022-10-21T04:29:23.148Z,1.20
2022-10-21T04:31:51.082Z,1.00
2022-10-21T04:34:19.014Z,1.00
2022-10-21T04:36:50.217Z,1.10
2022-10-21T04:39:18.118Z,1.00
2022-10-21T04:41:47.773Z,1.10
2022-10-21T04:44:15.658Z,1.20
2022-10-21T04:46:43.522Z,0.90
2022-10-21T04:49:11.409Z,1.10
2022-10-21T04:51:39.280Z,1.10
2022-10-21T04:54:08.490Z,1.30
2022-10-21T04:56:36.365Z,1.10
2022-10-21T04:59:04.244Z,1.00
2022-10-21T05:01:32.181Z,0.93
2022-10-21T05:04:00.106Z,1.00
2022-10-21T05:06:27.977Z,1.13
2022-10-21T05:08:55.897Z,0.97
2022-10-21T05:11:25.154Z,1.10
2022-10-21T05:13:53.069Z,1.10
2022-10-21T05:16:20.935Z,1.00
2022-10-21T05:18:48.840Z,1.00
2022-10-21T05:21:16.707Z,1.10
2022-10-21T05:23:44.587Z,1.00
2022-10-21T05:26:12.474Z,0.77
2022-10-21T05:28:41.672Z,0.90
2022-10-21T05:31:09.523Z,0.90
2022-10-21T05:33:37.417Z,1.07
2022-10-21T05:36:07.695Z,1.00
2022-10-21T05:38:35.832Z,1.00
2022-10-21T05:41:03.712Z,0.90
2022-10-21T05:43:31.590Z,1.00
2022-10-21T05:46:00.817Z,1.00
2022-10-21T05:48:28.730Z,1.07
2022-10-21T05:50:56.722Z,0.93
2022-10-21T05:53:24.732Z,0.90
2022-10-21T05:55:56.866Z,1.20
2022-10-21T05:58:25.031Z,1.17
2022-10-21T06:00:54.633Z,0.93
2022-10-21T06:03:24.508Z,1.00
2022-10-21T06:05:52.469Z,0.90
2022-10-21T06:08:20.347Z,1.20
2022-10-21T06:10:48.218Z,1.00
2022-10-21T06:13:16.084Z,0.90
2022-10-21T06:15:48.747Z,0.90
2022-10-21T06:18:18.874Z,1.00
2022-10-21T06:20:48.094Z,1.00
2022-10-21T06:23:16.341Z,0.90
2022-10-21T06:25:44.361Z,1.00
2022-10-21T06:28:12.255Z,1.10
2022-10-21T06:30:40.135Z,1.00
2022-10-21T06:33:08.015Z,0.90
2022-10-21T06:35:35.870Z,0.90
2022-10-21T06:38:05.091Z,1.10
2022-10-21T06:40:32.981Z,1.03
2022-10-21T06:43:00.857Z,1.00
2022-10-21T06:45:28.717Z,1.10
2022-10-21T06:47:56.596Z,1.10
2022-10-21T06:50:24.437Z,0.97
2022-10-21T06:52:52.350Z,1.00
2022-10-21T06:55:21.542Z,0.90
2022-10-21T06:57:49.426Z,0.90
2022-10-21T07:00:17.390Z,1.00
2022-10-21T07:02:45.279Z,1.00
2022-10-21T07:05:13.160Z,0.90
2022-10-21T07:07:41.354Z,1.00
2022-10-21T07:10:09.777Z,1.10
2022-10-21T07:12:39.042Z,1.00
2022-10-21T07:15:07.597Z,0.97
2022-10-21T07:17:35.593Z,0.90
2022-10-21T07:20:03.695Z,0.90
2022-10-21T07:22:31.888Z,1.00
2022-10-21T07:27:28.094Z,1.00
2022-10-21T07:29:57.311Z,0.90
2022-10-21T07:32:25.341Z,1.10
2022-10-21T07:34:53.236Z,1.10
2022-10-21T07:37:21.136Z,1.20
2022-10-21T07:39:49.015Z,1.23
2022-10-21T07:42:16.905Z,1.43
2022-10-21T07:44:44.788Z,1.20
2022-10-21T07:47:14.033Z,1.20
2022-10-21T07:49:41.913Z,1.20
2022-10-21T07:52:09.788Z,1.30
2022-10-21T07:54:37.717Z,1.37
2022-10-21T07:57:05.553Z,1.47
2022-10-21T07:59:33.612Z,1.30
2022-10-21T08:02:01.493Z,2.27
2022-10-21T08:04:33.209Z,1.83
2022-10-21T08:07:01.094Z,1.43
2022-10-21T08:09:28.982Z,1.37
2022-10-21T08:11:57.127Z,1.33
2022-10-21T08:14:25.058Z,1.70
2022-10-21T08:16:53.729Z,1.80
2022-10-21T08:19:24.503Z,1.93
2022-10-21T08:21:54.447Z,2.63
2022-10-21T08:24:23.428Z,1.80
2022-10-21T08:26:51.399Z,2.03
2022-10-21T08:29:19.273Z,1.70
2022-10-21T08:31:47.160Z,1.57
2022-10-21T08:34:15.016Z,1.70
2022-10-21T08:36:42.867Z,1.80
2022-10-21T08:39:12.214Z,1.60
2022-10-21T08:41:46.982Z,1.80
2022-10-21T08:44:21.637Z,1.53
2022-10-21T08:46:51.187Z,1.70
2022-10-21T08:49:23.227Z,1.87
2022-10-21T08:51:54.669Z,1.80
2022-10-21T08:54:25.954Z,1.97
2022-10-21T08:56:54.938Z,1.97
2022-10-21T08:59:24.109Z,2.47
2022-10-21T09:01:55.719Z,2.10
2022-10-21T09:04:28.245Z,2.00
2022-10-21T09:06:58.224Z,2.10
2022-10-21T09:09:30.205Z,2.00
2022-10-21T09:12:02.789Z,2.17
2022-10-21T09:14:57.232Z,2.57
2022-10-21T09:17:39.814Z,2.13
2022-10-21T09:20:14.074Z,2.20
2022-10-21T09:22:46.055Z,2.47
2022-10-21T09:25:23.070Z,2.60
2022-10-21T09:27:56.334Z,2.30
2022-10-21T09:30:24.974Z,2.27
2022-10-21T09:32:56.162Z,2.17
2022-10-21T09:35:28.328Z,2.80
2022-10-21T09:37:57.452Z,1.80
2022-10-21T09:40:28.302Z,2.33
2022-10-21T09:42:58.754Z,2.10
2022-10-21T09:45:30.148Z,2.70
2022-10-21T09:47:59.577Z,2.10
2022-10-21T09:50:27.706Z,2.00
2022-10-21T09:53:01.916Z,2.70
2022-10-21T09:55:31.457Z,2.00
2022-10-21T09:58:01.047Z,2.00
2022-10-21T10:00:48.728Z,2.00
2022-10-21T10:03:31.036Z,2.00
2022-10-21T10:05:58.927Z,2.30
2022-10-21T10:08:30.290Z,2.43
2022-10-21T10:11:15.600Z,2.07
2022-10-21T10:13:44.419Z,2.00
2022-10-21T10:16:18.442Z,2.60
2022-10-21T10:18:46.407Z,2.60
2022-10-21T10:21:14.921Z,2.20
2022-10-21T10:23:44.608Z,2.17
2022-10-21T10:26:24.392Z,2.30
2022-10-21T10:28:54.059Z,2.17
2022-10-21T10:31:29.596Z,2.30
2022-10-21T10:33:59.967Z,2.30
2022-10-21T10:36:30.114Z,2.20
2022-10-21T10:38:58.629Z,2.30
2022-10-21T10:41:33.003Z,2.10
2022-10-21T10:44:00.879Z,2.20
2022-10-21T10:46:30.116Z,2.00
2022-10-21T10:48:58.933Z,2.23
2022-10-21T10:51:28.482Z,2.50
2022-10-21T10:54:01.376Z,2.00
2022-10-21T10:56:32.137Z,2.10
2022-10-21T10:59:05.336Z,1.63
2022-10-21T11:01:36.326Z,1.83
2022-10-21T11:04:07.396Z,2.07
2022-10-21T11:06:37.737Z,1.93
2022-10-21T11:09:06.652Z,2.20
2022-10-21T11:11:38.325Z,2.10
2022-10-21T11:14:08.834Z,1.90
2022-10-21T11:16:59.540Z,2.13
2022-10-21T11:19:31.095Z,1.80
2022-10-21T11:22:06.260Z,1.90
2022-10-21T11:24:53.971Z,1.80
2022-10-21T11:27:28.777Z,2.03
2022-10-21T11:30:02.441Z,1.67
2022-10-21T11:32:36.205Z,1.77
2022-10-21T11:35:17.395Z,2.30
2022-10-21T11:37:56.175Z,2.10
2022-10-21T11:40:30.097Z,1.67
2022-10-21T11:43:00.905Z,2.03
2022-10-21T11:45:34.806Z,2.20
2022-10-21T11:48:07.282Z,2.00
2022-10-21T11:50:38.130Z,1.90
2022-10-21T11:53:22.826Z,1.70
2022-10-21T11:55:53.863Z,2.03
2022-10-21T11:58:29.921Z,1.83
2022-10-21T12:01:05.448Z,1.77
2022-10-21T12:03:40.788Z,1.47
2022-10-21T12:06:13.845Z,2.13
2022-10-21T12:08:46.143Z,1.97
2022-10-21T12:11:17.997Z,1.70
2022-10-21T12:13:48.727Z,2.10
2022-10-21T12:16:18.553Z,2.10
2022-10-21T12:18:48.539Z,1.80
2022-10-21T12:21:17.758Z,2.00
2022-10-21T12:23:45.619Z,2.00
2022-10-21T12:26:19.269Z,1.80
2022-10-21T12:28:52.248Z,1.80
2022-10-21T12:31:28.923Z,1.70
2022-10-21T12:33:56.798Z,2.13
2022-10-21T12:36:41.757Z,1.87
2022-10-21T12:39:13.284Z,1.90
2022-10-21T12:41:41.627Z,2.27
2022-10-21T12:44:26.550Z,1.77
2022-10-21T12:46:55.856Z,1.70
2022-10-21T12:49:28.615Z,1.80
2022-10-21T12:51:58.569Z,2.00
2022-10-21T12:54:30.402Z,1.97
2022-10-21T12:57:03.449Z,1.73
2022-10-21T12:59:35.120Z,2.00
2022-10-21T13:02:28.161Z,1.90
2022-10-21T13:04:59.311Z,1.93
2022-10-21T13:07:37.422Z,1.90
2022-10-21T13:10:26.209Z,1.83
2022-10-21T13:13:32.152Z,1.90
2022-10-21T13:16:02.700Z,1.53
2022-10-21T13:18:53.007Z,1.33
2022-10-21T13:21:45.037Z,1.43
2022-10-21T13:24:23.928Z,1.50
2022-10-21T13:26:53.791Z,1.60
2022-10-21T13:29:44.776Z,1.60
2022-10-21T13:32:28.088Z,1.33
2022-10-21T13:35:23.669Z,1.37
2022-10-21T13:37:55.156Z,1.60
2022-10-21T13:40:31.600Z,1.70
2022-10-21T13:43:01.070Z,1.50
2022-10-21T13:45:30.587Z,1.80
2022-10-21T13:48:04.621Z,1.90
2022-10-21T13:50:33.809Z,1.63
2022-10-21T13:53:03.437Z,1.47
2022-10-21T13:55:31.302Z,1.60
2022-10-21T13:57:59.171Z,1.40
2022-10-21T14:00:28.936Z,1.47
2022-10-21T14:03:01.045Z,1.30
2022-10-21T14:05:41.206Z,1.60
2022-10-21T14:08:15.406Z,1.80
2022-10-21T14:10:46.290Z,1.50
2022-10-21T14:13:14.373Z,1.57
2022-10-21T14:15:45.109Z,1.20
2022-10-21T14:18:29.476Z,1.30
2022-10-21T14:21:00.818Z,1.47
2022-10-21T14:23:28.710Z,1.60
2022-10-21T14:25:58.994Z,1.37
2022-10-21T14:28:26.898Z,1.30
2022-10-21T14:30:54.891Z,1.40
2022-10-21T14:33:25.432Z,1.33
2022-10-21T14:36:08.745Z,1.57
2022-10-21T14:38:41.303Z,1.50
2022-10-21T14:41:12.495Z,1.23
2022-10-21T14:43:40.954Z,1.40
2022-10-21T14:46:09.545Z,1.20
2022-10-21T14:48:38.929Z,1.50
2022-10-21T14:51:11.134Z,1.33
2022-10-21T14:53:43.959Z,1.30
2022-10-21T14:56:15.988Z,1.40
2022-10-21T14:58:46.826Z,1.20
2022-10-21T15:01:15.583Z,1.23
2022-10-21T15:03:44.470Z,1.37
2022-10-21T15:06:15.339Z,1.30
2022-10-21T15:08:44.890Z,1.30
2022-10-21T15:11:23.208Z,1.27
2022-10-21T15:14:05.645Z,1.40
2022-10-21T15:19:09.886Z,1.40
2022-10-21T15:21:40.954Z,1.23
2022-10-21T15:24:11.119Z,1.47
2022-10-21T15:26:40.991Z,1.50
2022-10-21T15:29:24.901Z,1.43
2022-10-21T15:31:53.333Z,1.20
2022-10-21T15:34:21.288Z,1.40
2022-10-21T15:36:50.522Z,1.13
2022-10-21T15:39:18.427Z,1.30
2022-10-21T15:41:46.656Z,1.23
2022-10-21T15:44:19.469Z,1.20
2022-10-21T15:46:49.619Z,1.13
2022-10-21T15:49:19.381Z,1.50
2022-10-21T15:51:47.488Z,1.10
2022-10-21T15:54:16.967Z,1.23
2022-10-21T15:56:44.972Z,1.30
2022-10-21T15:59:17.117Z,1.43
2022-10-21T16:01:45.030Z,1.30
2022-10-21T16:04:12.943Z,1.10
2022-10-21T16:06:45.722Z,1.20
2022-10-21T16:09:19.644Z,1.20
2022-10-21T16:12:01.829Z,1.17
2022-10-21T16:14:31.010Z,1.20
2022-10-21T16:16:59.175Z,1.30
2022-10-21T16:19:27.114Z,1.20
2022-10-21T16:21:55.020Z,1.10
2022-10-21T16:24:22.932Z,1.30
2022-10-21T16:26:52.183Z,1.20
2022-10-21T16:29:22.047Z,1.33
2022-10-21T16:31:50.065Z,1.20
2022-10-21T16:34:17.943Z,1.00
2022-10-21T16:36:45.865Z,1.13
2022-10-21T16:39:14.673Z,1.20
2022-10-21T16:41:42.567Z,1.30
2022-10-21T16:44:11.959Z,1.10
2022-10-21T16:46:40.920Z,1.30
2022-10-21T16:49:13.078Z,1.20
2022-10-21T16:51:41.439Z,1.13
2022-10-21T16:54:09.431Z,1.20
2022-10-21T16:56:37.351Z,1.10
2022-10-21T16:59:05.302Z,1.20
2022-10-21T17:01:34.635Z,1.10
2022-10-21T17:04:02.525Z,1.40
2022-10-21T17:06:30.436Z,1.10
2022-10-21T17:08:58.488Z,1.20
2022-10-21T17:11:29.041Z,1.20
2022-10-21T17:13:56.934Z,1.20
2022-10-21T17:16:24.816Z,1.10
2022-10-21T17:18:54.045Z,1.23
2022-10-21T17:21:23.074Z,1.10
2022-10-21T17:23:51.153Z,1.27
2022-10-21T17:26:19.311Z,1.20
2022-10-21T17:28:47.390Z,1.20
2022-10-21T17:31:16.243Z,1.20
2022-10-21T17:33:44.436Z,1.27
2022-10-21T17:36:14.691Z,1.10
2022-10-21T17:38:42.732Z,1.10
2022-10-21T17:41:10.905Z,0.90
2022-10-21T17:43:38.835Z,1.07
2022-10-21T17:46:06.884Z,1.30
2022-10-21T17:51:28.035Z,1.20
2022-10-21T17:53:56.075Z,1.20
2022-10-21T17:56:24.177Z,1.60
2022-10-21T17:58:52.472Z,1.57
2022-10-21T18:01:20.554Z,1.50
2022-10-21T18:03:48.521Z,1.87
2022-10-21T18:06:16.570Z,1.77
2022-10-21T18:08:47.345Z,1.80
2022-10-21T18:11:16.786Z,1.80
2022-10-21T18:13:45.135Z,2.30
2022-10-21T18:16:14.042Z,2.43
2022-10-21T18:21:15.649Z,3.50
2022-10-21T18:23:44.643Z,4.20
2022-10-21T18:26:15.021Z,3.57
2022-10-21T18:28:42.945Z,4.27
2022-10-21T18:31:10.905Z,4.17
2022-10-21T18:33:38.856Z,4.90
2022-10-21T18:36:10.582Z,5.43
2022-10-21T18:38:38.717Z,8.20
2022-10-21T18:41:21.598Z,11.27
2022-10-21T18:43:51.777Z,11.60
2022-10-21T18:46:19.851Z,13.77
2022-10-21T18:48:47.898Z,12.57
2022-10-21T18:51:16.497Z,14.07
2022-10-21T18:53:47.245Z,12.87
2022-10-21T18:56:18.811Z,10.90
2022-10-21T18:58:46.946Z,13.37
2022-10-21T19:01:16.882Z,16.13
2022-10-21T19:03:44.831Z,12.77
2022-10-21T19:06:17.284Z,14.30
2022-10-21T19:08:45.285Z,13.80
2022-10-21T19:11:13.338Z,15.57
2022-10-21T19:13:41.254Z,19.20
2022-10-21T19:16:09.269Z,13.57
2022-10-21T19:18:38.933Z,17.47
2022-10-21T19:21:07.610Z,12.70
2022-10-21T19:23:35.614Z,13.67
2022-10-21T19:26:04.190Z,16.53
2022-10-21T19:28:32.149Z,17.70
2022-10-21T19:31:00.063Z,17.30
2022-10-21T19:33:28.099Z,18.33
2022-10-21T19:35:59.459Z,16.60
2022-10-21T19:38:43.387Z,20.67
2022-10-21T19:41:12.650Z,18.60
2022-10-21T19:43:40.600Z,17.83
2022-10-21T19:46:09.019Z,18.73
2022-10-21T19:48:37.369Z,21.23
2022-10-21T19:51:08.007Z,18.37
2022-10-21T19:53:37.589Z,17.07
2022-10-21T19:56:06.243Z,17.23
2022-10-21T19:58:34.397Z,19.50
2022-10-21T20:01:03.107Z,16.30
2022-10-21T20:03:31.154Z,21.80
2022-10-21T20:05:59.108Z,19.83
2022-10-21T20:08:28.408Z,20.00
2022-10-21T20:11:00.630Z,19.53
2022-10-21T20:13:28.641Z,19.97
2022-10-21T20:15:56.582Z,20.53
2022-10-21T20:18:26.546Z,19.73
2022-10-21T20:20:55.495Z,18.23
2022-10-21T20:23:23.672Z,17.77
2022-10-21T20:25:54.453Z,18.77
2022-10-21T20:28:22.526Z,22.87
2022-10-21T20:30:56.945Z,20.80
2022-10-21T20:33:24.971Z,18.90
2022-10-21T20:35:52.959Z,16.17
2022-10-21T20:38:20.963Z,17.53
2022-10-21T20:40:54.770Z,22.07
2022-10-21T20:43:22.738Z,21.23
2022-10-21T20:45:50.643Z,21.37
2022-10-21T20:48:18.515Z,19.43
2022-10-21T20:50:46.475Z,18.80
2022-10-21T20:53:14.570Z,19.13
2022-10-21T20:55:43.711Z,19.50
2022-10-21T20:58:12.962Z,20.10
2022-10-21T21:00:44.753Z,20.67
2022-10-21T21:03:14.363Z,17.87
2022-10-21T21:05:42.286Z,22.30
2022-10-21T21:08:10.195Z,20.17
2022-10-21T21:10:38.300Z,19.37
2022-10-21T21:13:06.254Z,20.40
2022-10-21T21:15:35.570Z,18.60
2022-10-21T21:18:07.814Z,19.60
2022-10-21T21:20:35.731Z,20.37
2022-10-21T21:23:03.885Z,18.70
2022-10-21T21:25:31.782Z,18.93
2022-10-21T21:27:59.820Z,19.10
2022-10-21T21:30:27.786Z,20.27
2022-10-21T21:32:57.252Z,18.77
2022-10-21T21:35:25.182Z,18.83
2022-10-21T21:37:53.119Z,18.77
2022-10-21T21:40:21.106Z,21.37
2022-10-21T21:42:49.019Z,20.77
2022-10-21T21:45:16.924Z,19.20
2022-10-21T21:47:44.820Z,20.93
2022-10-21T21:50:14.101Z,20.03
2022-10-21T21:52:42.208Z,17.83
2022-10-21T21:55:10.627Z,18.03
2022-10-21T21:57:38.564Z,19.47
2022-10-21T22:00:07.803Z,20.10
2022-10-21T22:02:35.666Z,19.47
2022-10-21T22:05:03.570Z,19.30
2022-10-21T22:07:33.335Z,19.13
2022-10-21T22:10:01.267Z,21.50
2022-10-21T22:12:29.183Z,19.53
2022-10-21T22:14:57.105Z,18.80
2022-10-21T22:17:25.132Z,18.77
2022-10-21T22:19:54.073Z,16.80
2022-10-21T22:22:22.399Z,17.40
2022-10-21T22:24:51.666Z,18.77
2022-10-21T22:27:19.768Z,19.10
2022-10-21T22:29:47.677Z,19.87
2022-10-21T22:32:17.423Z,17.93
2022-10-21T22:34:45.394Z,16.57
2022-10-21T22:37:13.336Z,19.33
2022-10-21T22:39:41.287Z,18.87
2022-10-21T22:42:10.584Z,16.93
2022-10-21T22:44:38.531Z,15.33
2022-10-21T22:47:07.102Z,18.23
2022-10-21T22:49:35.102Z,19.70
2022-10-21T22:52:03.058Z,20.27
2022-10-21T22:54:48.705Z,17.33
2022-10-21T22:57:18.865Z,18.37
2022-10-21T22:59:52.043Z,18.00
2022-10-21T23:02:21.178Z,17.63
2022-10-21T23:04:49.058Z,15.73
2022-10-21T23:07:16.972Z,14.27
2022-10-21T23:09:44.934Z,16.43
2022-10-21T23:12:12.873Z,16.73
2022-10-21T23:14:42.182Z,16.87
2022-10-21T23:17:10.110Z,14.70
2022-10-21T23:19:38.032Z,14.80
2022-10-21T23:22:05.990Z,15.23
2022-10-21T23:24:34.058Z,15.27
2022-10-21T23:27:02.003Z,16.77
2022-10-21T23:29:29.960Z,15.13
2022-10-21T23:31:59.263Z,14.50
2022-10-21T23:34:27.189Z,14.73
2022-10-21T23:36:55.150Z,15.40
2022-10-21T23:39:23.071Z,15.50
2022-10-21T23:41:51.042Z,13.73
2022-10-21T23:44:19.073Z,15.37
2022-10-21T23:46:47.020Z,14.23
2022-10-21T23:49:16.352Z,15.93
2022-10-21T23:51:44.273Z,15.77
2022-10-21T23:54:12.720Z,13.40
2022-10-21T23:56:40.675Z,13.03
2022-10-21T23:59:08.626Z,14.10
